createdAt,value
2023-04-15T00:01:43.008Z,73.45
2023-04-15T00:04:11.390Z,73.68
2023-04-15T00:06:41.155Z,73.83
2023-04-15T00:09:12.086Z,74.10
2023-04-15T00:11:40.871Z,74.37
2023-04-15T00:14:11.384Z,74.73
2023-04-15T00:16:44.914Z,74.79
2023-04-15T00:19:13.321Z,74.82
2023-04-15T00:21:42.162Z,74.83
2023-04-15T00:24:10.324Z,75.02
2023-04-15T00:26:41.257Z,75.27
2023-04-15T00:29:10.689Z,76.00
2023-04-15T00:31:40.326Z,76.50
2023-04-15T00:34:08.739Z,76.75
2023-04-15T00:36:39.181Z,77.00
2023-04-15T00:39:07.493Z,77.43
2023-04-15T00:41:39.301Z,79.56
2023-04-15T00:44:07.661Z,80.29
2023-04-15T00:46:36.310Z,80.17
2023-04-15T00:49:06.497Z,79.93
2023-04-15T00:51:37.247Z,82.15
2023-04-15T00:54:06.967Z,86.22
2023-04-15T00:56:40.111Z,87.23
2023-04-15T00:59:09.252Z,87.61
2023-04-15T01:01:38.613Z,87.80
2023-04-15T01:04:08.565Z,87.41
2023-04-15T01:06:37.082Z,86.32
2023-04-15T01:09:08.529Z,84.89
2023-04-15T01:11:41.718Z,83.71
2023-04-15T01:14:12.342Z,82.45
2023-04-15T01:16:45.474Z,81.31
2023-04-15T01:19:13.703Z,80.51
2023-04-15T01:21:44.077Z,80.06
2023-04-15T01:24:12.263Z,79.66
2023-04-15T01:26:44.462Z,79.20
2023-04-15T01:29:14.252Z,78.48
2023-04-15T01:31:53.109Z,77.99
2023-04-15T01:34:21.872Z,77.87
2023-04-15T01:36:51.407Z,77.75
2023-04-15T01:39:20.371Z,78.12
2023-04-15T01:41:50.161Z,78.75
2023-04-15T01:44:18.268Z,78.45
2023-04-15T01:46:48.675Z,78.21
2023-04-15T01:49:17.268Z,78.37
2023-04-15T01:51:47.649Z,78.85
2023-04-15T01:54:17.029Z,79.27
2023-04-15T01:56:48.995Z,79.44
2023-04-15T01:59:17.279Z,79.63
2023-04-15T02:01:46.730Z,79.62
2023-04-15T02:04:17.464Z,80.16
2023-04-15T02:06:46.455Z,80.33
2023-04-15T02:09:16.530Z,80.26
2023-04-15T02:11:49.258Z,80.19
2023-04-15T02:14:17.993Z,80.15
2023-04-15T02:16:46.663Z,80.19
2023-04-15T02:19:17.859Z,80.09
2023-04-15T02:21:47.352Z,80.11
2023-04-15T02:24:18.273Z,79.93
2023-04-15T02:26:49.641Z,80.16
2023-04-15T02:29:18.852Z,80.24
2023-04-15T02:31:51.334Z,80.31
2023-04-15T02:34:20.339Z,80.24
2023-04-15T02:36:49.688Z,80.05
2023-04-15T02:39:19.064Z,80.18
2023-04-15T02:41:52.601Z,80.28
2023-04-15T02:44:23.575Z,80.16
2023-04-15T02:46:55.036Z,80.08
2023-04-15T02:49:25.730Z,80.09
2023-04-15T02:51:54.055Z,80.13
2023-04-15T02:54:26.083Z,80.02
2023-04-15T02:56:58.186Z,80.05
2023-04-15T02:59:26.442Z,80.02
2023-04-15T03:01:56.746Z,79.73
2023-04-15T03:04:25.347Z,79.77
2023-04-15T03:06:53.555Z,79.83
2023-04-15T03:09:23.025Z,80.04
2023-04-15T03:11:53.732Z,79.98
2023-04-15T03:14:27.349Z,80.00
2023-04-15T03:16:59.621Z,79.97
2023-04-15T03:19:27.968Z,79.80
2023-04-15T03:22:00.727Z,79.73
2023-04-15T03:24:35.444Z,79.51
2023-04-15T03:27:06.450Z,79.24
2023-04-15T03:29:35.786Z,79.16
2023-04-15T03:32:04.159Z,79.23
2023-04-15T03:34:34.459Z,78.99
2023-04-15T03:37:02.733Z,78.85
2023-04-15T03:39:31.853Z,78.44
2023-04-15T03:42:00.236Z,78.11
2023-04-15T03:44:33.105Z,78.07
2023-04-15T03:47:02.234Z,78.18
2023-04-15T03:49:30.593Z,78.31
2023-04-15T03:52:04.505Z,78.61
2023-04-15T03:54:32.664Z,78.75
2023-04-15T03:57:02.477Z,78.84
2023-04-15T03:59:31.164Z,78.85
2023-04-15T04:01:59.782Z,78.84
2023-04-15T04:04:28.355Z,79.19
2023-04-15T04:06:58.171Z,79.56
2023-04-15T04:09:26.727Z,80.12
2023-04-15T04:16:31.826Z,80.49
2023-04-15T04:19:02.303Z,80.19
2023-04-15T04:21:34.399Z,80.01
2023-04-15T04:24:02.715Z,79.99
2023-04-15T04:26:31.395Z,80.18
2023-04-15T04:28:59.954Z,80.68
2023-04-15T04:31:31.735Z,80.50
2023-04-15T04:34:00.804Z,80.45
2023-04-15T04:36:30.158Z,80.25
2023-04-15T04:39:00.018Z,80.56
2023-04-15T04:41:32.428Z,80.47
2023-04-15T04:44:00.792Z,80.34
2023-04-15T04:46:33.226Z,80.24
2023-04-15T04:49:01.880Z,80.31
2023-04-15T04:51:31.163Z,80.47
2023-04-15T04:54:01.804Z,80.23
2023-04-15T04:56:31.757Z,79.92
2023-04-15T04:59:03.295Z,79.89
2023-04-15T05:01:33.298Z,79.89
2023-04-15T05:04:01.843Z,79.76
2023-04-15T05:06:32.853Z,80.25
2023-04-15T05:09:04.480Z,80.91
2023-04-15T05:11:33.463Z,81.04
2023-04-15T05:14:02.525Z,80.85
2023-04-15T05:16:36.043Z,80.57
2023-04-15T05:19:04.410Z,80.63
2023-04-15T05:21:32.675Z,80.40
2023-04-15T05:24:01.226Z,80.34
2023-04-15T05:26:33.780Z,81.07
2023-04-15T05:29:02.355Z,81.18
2023-04-15T05:31:31.434Z,81.07
2023-04-15T05:34:05.472Z,81.06
2023-04-15T05:36:33.772Z,81.52
2023-04-15T05:39:02.335Z,81.32
2023-04-15T05:41:31.193Z,81.02
2023-04-15T05:44:00.815Z,80.90
2023-04-15T05:46:33.646Z,80.91
2023-04-15T05:49:04.900Z,81.05
2023-04-15T05:51:33.352Z,81.00
2023-04-15T05:54:03.795Z,80.90
2023-04-15T05:56:32.504Z,80.73
2023-04-15T05:59:01.069Z,80.72
2023-04-15T06:01:31.392Z,80.70
2023-04-15T06:04:00.516Z,80.48
2023-04-15T06:06:28.870Z,79.96
2023-04-15T08:10:37.872Z,64.09
2023-04-15T08:13:07.033Z,63.10
2023-04-15T08:15:38.546Z,62.98
2023-04-15T08:18:07.465Z,62.46
2023-04-15T08:20:35.670Z,61.32
2023-04-15T08:23:04.849Z,61.31
2023-04-15T08:25:41.419Z,61.35
2023-04-15T08:28:10.340Z,60.99
2023-04-15T08:30:41.761Z,61.46
2023-04-15T08:33:09.867Z,61.28
2023-04-15T08:35:41.832Z,60.38
2023-04-15T08:38:13.937Z,60.29
2023-04-15T08:40:43.546Z,59.90
2023-04-15T08:43:28.748Z,59.56
2023-04-15T08:45:59.302Z,59.47
2023-04-15T08:48:29.526Z,59.10
2023-04-15T08:50:57.906Z,59.40
2023-04-15T08:53:31.071Z,59.29
2023-04-15T08:56:01.874Z,59.87
2023-04-15T08:58:30.279Z,60.67
2023-04-15T09:01:00.013Z,60.63
2023-04-15T09:03:33.777Z,60.44
2023-04-15T09:06:07.313Z,60.43
2023-04-15T09:08:39.189Z,60.01
2023-04-15T09:11:08.769Z,59.76
2023-04-15T09:13:38.493Z,59.70
2023-04-15T09:16:06.987Z,59.04
2023-04-15T09:18:36.523Z,58.55
2023-04-15T09:22:23.810Z,59.40
2023-04-15T09:24:54.963Z,59.48
2023-04-15T09:37:35.774Z,59.35
2023-04-15T09:40:04.967Z,58.81
2023-04-15T09:42:36.525Z,58.68
2023-04-15T09:45:12.997Z,58.22
2023-04-15T09:47:41.673Z,59.22
2023-04-15T09:50:10.094Z,59.82
2023-04-15T09:52:43.161Z,59.90
2023-04-15T09:55:11.809Z,59.50
2023-04-15T09:57:50.312Z,59.06
2023-04-15T10:00:18.936Z,59.23
2023-04-15T10:02:47.573Z,59.90
2023-04-15T10:05:17.728Z,60.40
2023-04-15T10:07:48.494Z,61.12
2023-04-15T10:10:16.951Z,62.16
2023-04-15T10:12:45.332Z,63.50
2023-04-15T10:15:16.685Z,64.42
2023-04-15T10:17:45.081Z,64.38
2023-04-15T10:20:13.322Z,64.36
2023-04-15T10:22:42.450Z,64.46
2023-04-15T10:25:14.287Z,65.18
2023-04-15T10:27:48.945Z,65.69
2023-04-15T10:30:21.669Z,66.11
2023-04-15T10:32:50.019Z,65.83
2023-04-15T10:35:18.788Z,65.65
2023-04-15T10:37:47.636Z,65.63
2023-04-15T10:40:27.505Z,65.72
2023-04-15T10:42:56.755Z,66.34
2023-04-15T10:45:36.989Z,66.73
2023-04-15T10:48:09.687Z,67.23
2023-04-15T10:50:39.579Z,68.06
2023-04-15T10:53:10.149Z,68.87
2023-04-15T10:55:46.293Z,69.09
2023-04-15T10:58:15.293Z,68.25
2023-04-15T11:00:45.282Z,66.76
2023-04-15T11:03:13.664Z,65.52
2023-04-15T11:05:42.911Z,66.38
2023-04-15T11:08:13.993Z,67.49
2023-04-15T11:10:42.129Z,67.81
2023-04-15T11:13:10.883Z,68.45
2023-04-15T11:15:49.786Z,69.54
2023-04-15T11:18:26.933Z,69.32
2023-04-15T11:20:59.982Z,67.19
2023-04-15T11:23:31.837Z,65.39
2023-04-15T11:26:01.208Z,63.25
2023-04-15T11:28:31.928Z,62.03
2023-04-15T11:31:12.992Z,59.98
2023-04-15T11:33:48.348Z,58.48
2023-04-15T11:36:17.242Z,57.58
2023-04-15T11:38:48.868Z,57.37
2023-04-15T11:41:21.393Z,56.50
2023-04-15T11:43:52.872Z,56.83
2023-04-15T11:46:23.247Z,57.57
2023-04-15T11:48:51.746Z,58.53
2023-04-15T11:51:22.190Z,58.09
2023-04-15T11:53:52.347Z,59.08
2023-04-15T11:56:26.318Z,59.56
2023-04-15T11:58:59.485Z,59.93
2023-04-15T12:01:35.475Z,60.81
2023-04-15T12:04:18.055Z,62.22
2023-04-15T12:06:47.341Z,63.65
2023-04-15T12:09:16.866Z,64.78
2023-04-15T12:11:46.193Z,65.50
2023-04-15T12:14:30.281Z,66.20
2023-04-15T12:17:03.729Z,66.70
2023-04-15T12:19:35.909Z,67.05
2023-04-15T12:22:22.480Z,68.26
2023-04-15T12:24:54.984Z,68.99
2023-04-15T12:27:27.638Z,69.51
2023-04-15T12:30:08.260Z,69.88
2023-04-15T12:32:37.456Z,70.18
2023-04-15T12:35:09.786Z,70.23
2023-04-15T12:37:38.547Z,68.36
2023-04-15T12:40:08.788Z,68.00
2023-04-15T12:42:38.457Z,68.94
2023-04-15T12:45:07.975Z,69.16
2023-04-15T12:47:45.372Z,69.51
2023-04-15T12:50:13.634Z,69.89
2023-04-15T12:52:42.944Z,69.66
2023-04-15T12:55:11.067Z,69.84
2023-04-15T12:57:40.064Z,70.14
2023-04-15T13:00:09.578Z,70.70
2023-04-15T13:02:38.305Z,69.80
2023-04-15T13:05:06.967Z,69.15
2023-04-15T13:07:35.252Z,68.81
2023-04-15T13:10:04.347Z,68.56
2023-04-15T13:12:36.620Z,68.33
2023-04-15T13:15:05.754Z,65.86
2023-04-15T13:17:34.588Z,65.02
2023-04-15T13:20:03.008Z,65.66
2023-04-15T13:22:31.742Z,65.54
2023-04-15T13:25:03.506Z,65.27
2023-04-15T13:27:31.783Z,63.84
2023-04-15T13:30:03.555Z,62.40
2023-04-15T13:38:43.239Z,62.46
2023-04-15T13:41:11.548Z,61.98
2023-04-15T13:43:39.665Z,60.05
2023-04-15T13:46:11.822Z,60.05
2023-04-15T13:48:40.304Z,60.23
2023-04-15T13:51:10.505Z,61.08
2023-04-15T13:53:59.037Z,61.09
2023-04-15T13:56:27.276Z,59.76
2023-04-15T13:58:59.314Z,58.39
2023-04-15T14:01:28.229Z,57.58
2023-04-15T14:03:56.849Z,56.91
2023-04-15T14:06:26.387Z,55.19
2023-04-15T14:08:56.163Z,54.81
2023-04-15T14:11:24.481Z,54.78
2023-04-15T14:13:52.690Z,54.91
2023-04-15T14:16:20.989Z,56.37
2023-04-15T14:18:50.040Z,56.27
2023-04-15T14:21:18.708Z,55.54
2023-04-15T14:23:47.096Z,55.13
2023-04-15T14:26:15.760Z,55.52
2023-04-15T14:28:45.203Z,56.41
2023-04-15T14:31:14.341Z,56.86
2023-04-15T14:33:42.941Z,56.83
2023-04-15T14:36:11.302Z,56.91
2023-04-15T14:38:42.532Z,57.38
2023-04-15T14:41:19.952Z,58.15
2023-04-15T14:43:48.548Z,58.89
2023-04-15T14:46:19.124Z,59.03
2023-04-15T14:48:48.049Z,59.85
2023-04-15T14:51:16.744Z,60.35
2023-04-15T14:53:45.989Z,60.29
2023-04-15T14:56:18.463Z,59.46
2023-04-15T14:58:49.449Z,59.19
2023-04-15T15:01:32.749Z,59.05
2023-04-15T15:04:01.985Z,59.03
2023-04-15T15:06:31.723Z,59.32
2023-04-15T15:09:01.855Z,59.53
2023-04-15T15:11:31.964Z,59.46
2023-04-15T15:14:06.013Z,59.52
2023-04-15T15:22:56.519Z,61.62
2023-04-15T15:25:25.023Z,60.75
2023-04-15T15:27:56.382Z,60.50
2023-04-15T15:30:24.813Z,60.94
2023-04-15T15:32:53.846Z,61.59
2023-04-15T15:35:26.177Z,62.29
2023-04-15T15:37:57.456Z,63.09
2023-04-15T15:40:25.602Z,64.08
2023-04-15T15:42:53.901Z,64.91
2023-04-15T15:45:22.198Z,65.88
2023-04-15T15:47:50.943Z,66.55
2023-04-15T15:50:20.401Z,67.06
2023-04-15T15:52:48.731Z,67.87
2023-04-15T15:55:17.276Z,68.42
2023-04-15T15:57:45.756Z,68.96
2023-04-15T16:00:14.627Z,69.64
2023-04-15T16:05:21.038Z,70.50
2023-04-15T16:07:53.771Z,70.72
2023-04-15T16:10:22.162Z,70.98
2023-04-15T16:12:50.752Z,71.01
2023-04-15T16:15:19.033Z,71.54
2023-04-15T16:17:48.029Z,71.98
2023-04-15T16:20:16.805Z,72.33
2023-04-15T16:22:45.008Z,72.52
2023-04-15T16:25:19.634Z,72.81
2023-04-15T16:28:01.299Z,72.92
2023-04-15T16:30:31.877Z,73.24
2023-04-15T16:33:00.544Z,73.24
2023-04-15T16:35:28.902Z,73.40
2023-04-15T16:38:00.459Z,73.60
2023-04-15T16:40:29.422Z,73.93
2023-04-15T16:42:58.704Z,74.21
2023-04-15T16:45:28.519Z,74.49
2023-04-15T16:47:58.238Z,74.60
2023-04-15T16:50:29.174Z,74.73
2023-04-15T16:52:57.540Z,74.85
2023-04-15T16:55:26.308Z,74.96
2023-04-15T16:58:01.596Z,75.02
2023-04-15T17:00:35.913Z,74.94
2023-04-15T17:03:05.952Z,75.01
2023-04-15T17:05:37.493Z,75.28
2023-04-15T17:08:07.208Z,75.34
2023-04-15T17:10:36.683Z,75.59
2023-04-15T17:13:07.424Z,75.59
2023-04-15T17:15:40.886Z,75.67
2023-04-15T17:18:10.954Z,75.92
2023-04-15T17:20:41.149Z,76.32
2023-04-15T17:23:09.465Z,76.79
2023-04-15T17:25:37.919Z,76.99
2023-04-15T17:28:06.125Z,77.03
2023-04-15T17:30:34.924Z,77.23
2023-04-15T17:33:58.859Z,77.40
2023-04-15T17:35:52.702Z,77.48
2023-04-15T17:38:20.897Z,77.55
2023-04-15T17:40:49.694Z,77.46
2023-04-15T17:43:19.176Z,77.40
2023-04-15T17:45:48.169Z,77.38
2023-04-15T17:48:16.605Z,77.26
2023-04-15T17:50:44.751Z,77.12
2023-04-15T17:53:13.519Z,77.00
2023-04-15T17:55:41.697Z,77.07
2023-04-15T17:58:10.980Z,77.17
2023-04-15T18:00:39.396Z,77.08
2023-04-15T18:03:08.297Z,77.07
2023-04-15T18:05:40.284Z,77.08
2023-04-15T18:08:12.593Z,77.09
2023-04-15T18:10:41.677Z,76.91
2023-04-15T18:13:10.415Z,76.83
2023-04-15T18:15:39.622Z,76.70
2023-04-15T18:18:07.916Z,76.57
2023-04-15T18:20:36.170Z,76.44
2023-04-15T18:23:05.147Z,76.23
2023-04-15T18:25:34.347Z,76.18
2023-04-15T18:28:04.001Z,76.01
2023-04-15T18:30:34.996Z,75.98
2023-04-15T18:33:05.635Z,75.72
2023-04-15T18:35:35.424Z,75.37
2023-04-15T18:38:05.042Z,75.24
2023-04-15T18:40:33.213Z,75.29
2023-04-15T18:43:01.409Z,75.24
2023-04-15T18:45:31.111Z,75.41
2023-04-15T18:48:00.896Z,75.35
2023-04-15T18:50:36.858Z,75.21
2023-04-15T18:53:07.885Z,75.29
2023-04-15T18:55:36.130Z,75.37
2023-04-15T18:58:06.324Z,75.35
2023-04-15T19:00:41.781Z,75.27
2023-04-15T19:03:11.582Z,75.00
2023-04-15T19:05:41.530Z,74.92
2023-04-15T19:08:09.732Z,74.75
2023-04-15T19:10:39.607Z,75.16
2023-04-15T19:13:11.047Z,75.29
2023-04-15T19:15:40.959Z,75.50
2023-04-15T19:18:10.785Z,75.39
2023-04-15T19:20:40.550Z,75.43
2023-04-15T19:23:11.706Z,75.24
2023-04-15T19:25:42.308Z,74.79
2023-04-15T19:28:11.976Z,74.86
2023-04-15T19:30:42.082Z,74.68
2023-04-15T19:33:10.899Z,74.61
2023-04-15T19:35:40.888Z,74.64
2023-04-15T19:38:09.972Z,74.27
2023-04-15T19:40:38.750Z,74.18
2023-04-15T19:43:09.429Z,74.16
2023-04-15T19:45:38.002Z,74.15
2023-04-15T19:48:07.802Z,74.10
2023-04-15T19:50:37.348Z,73.94
2023-04-15T19:53:08.372Z,73.75
2023-04-15T19:55:37.477Z,73.81
2023-04-15T19:58:06.039Z,73.85
2023-04-15T20:00:34.169Z,73.87
2023-04-15T20:03:02.472Z,73.67
2023-04-15T20:05:30.878Z,73.42
2023-04-15T20:08:01.136Z,73.40
2023-04-15T20:10:31.673Z,73.27
2023-04-15T20:13:01.331Z,73.38
2023-04-15T20:15:29.980Z,73.56
2023-04-15T20:17:58.159Z,73.70
2023-04-15T20:20:26.386Z,73.50
2023-04-15T20:22:57.100Z,73.47
2023-04-15T20:28:25.965Z,73.77
2023-04-15T20:30:54.158Z,73.97
2023-04-15T20:33:24.851Z,74.31
2023-04-15T20:35:55.541Z,74.15
2023-04-15T20:38:24.347Z,74.06
2023-04-15T20:40:58.426Z,74.00
2023-04-15T20:43:27.278Z,73.91
2023-04-15T20:45:56.683Z,74.05
2023-04-15T20:48:34.052Z,74.34
2023-04-15T20:51:06.024Z,74.19
2023-04-15T20:53:42.839Z,74.09
2023-04-15T20:56:35.136Z,74.06
2023-04-15T20:59:03.778Z,74.13
2023-04-15T21:01:32.431Z,74.23
2023-04-15T21:04:02.125Z,74.13
2023-04-15T21:06:31.286Z,73.95
2023-04-15T21:09:03.291Z,73.73
2023-04-15T21:11:57.517Z,73.81
2023-04-15T21:14:30.582Z,74.01
2023-04-15T21:16:59.660Z,74.06
2023-04-15T21:19:29.302Z,74.14
2023-04-15T21:21:59.731Z,74.15
2023-04-15T21:24:29.303Z,73.98
2023-04-15T21:26:59.898Z,74.04
2023-04-15T21:29:30.036Z,74.00
2023-04-15T21:32:01.070Z,74.01
2023-04-15T21:34:30.232Z,74.03
2023-04-15T21:36:59.570Z,74.10
2023-04-15T21:39:29.021Z,74.03
2023-04-15T21:41:58.115Z,73.64
2023-04-15T21:44:32.092Z,73.72
2023-04-15T21:47:00.672Z,73.77
2023-04-15T21:49:29.652Z,73.85
2023-04-15T21:52:01.488Z,73.93
2023-04-15T21:54:38.626Z,74.13
2023-04-15T21:57:35.494Z,74.11
2023-04-15T22:00:06.267Z,74.10
2023-04-15T22:02:38.071Z,74.07
2023-04-15T22:05:07.023Z,73.88
2023-04-15T22:07:39.171Z,73.97
2023-04-15T22:10:08.364Z,73.85
2023-04-15T22:12:37.499Z,73.80
2023-04-15T22:15:06.292Z,73.74
2023-04-15T22:17:39.187Z,73.49
2023-04-15T22:20:10.901Z,73.50
2023-04-15T22:22:44.090Z,73.61
2023-04-15T22:25:13.143Z,73.67
2023-04-15T22:27:41.528Z,73.73
2023-04-15T22:30:10.656Z,73.97
2023-04-15T22:32:39.066Z,73.91
2023-04-15T22:35:08.302Z,73.68
2023-04-15T22:37:43.988Z,73.61
2023-04-15T22:40:15.195Z,73.67
2023-04-15T22:42:48.817Z,73.73
2023-04-15T22:45:20.188Z,73.80
2023-04-15T22:47:49.556Z,73.91
2023-04-15T22:50:17.922Z,73.94
2023-04-15T23:00:30.112Z,74.06
2023-04-15T23:02:58.425Z,74.10
2023-04-15T23:05:29.012Z,74.21
2023-04-15T23:07:57.338Z,73.99
2023-04-15T23:10:32.828Z,73.87
2023-04-15T23:13:03.623Z,73.86
2023-04-15T23:15:32.001Z,73.87
2023-04-15T23:18:06.785Z,74.00
2023-04-15T23:20:35.205Z,74.14
2023-04-15T23:23:03.525Z,74.31
2023-04-15T23:25:34.298Z,74.16
2023-04-15T23:28:03.095Z,74.16
2023-04-15T23:30:32.558Z,74.17
2023-04-15T23:33:05.911Z,74.27
2023-04-15T23:35:34.600Z,74.41
2023-04-15T23:38:04.702Z,74.48
2023-04-15T23:40:35.770Z,74.60
2023-04-15T23:43:06.879Z,74.50
2023-04-15T23:45:41.367Z,74.45
2023-04-15T23:48:19.357Z,74.49
2023-04-15T23:50:50.573Z,74.64
2023-04-15T23:53:19.135Z,74.83
2023-04-15T23:55:49.072Z,74.66
2023-04-15T23:58:18.927Z,74.60
